This is the latest recevied weather packets stored in our database for station/object IZ1VWE-3. If no packets are shown the sender has not sent any weather packets the latest 10 day(s).
| Time | Temp. | Humidity | Pressure | Rain* | Wind** | Luminosity | Snow |
|---|---|---|---|---|---|---|---|
| 1777725014 | 23.33° C | 24% | 1021.5 hPa | - | - | - | - |
| 1777723813 | 23.33° C | 22% | 1021.6 hPa | - | - | - | - |
| 1777722613 | 23.89° C | 22% | 1021.7 hPa | - | - | - | - |
| 1777721413 | 23.33° C | 22% | 1021.9 hPa | - | - | - | - |
| 1777720212 | 22.78° C | 22% | 1022.2 hPa | - | - | - | - |
| 1777719012 | 23.89° C | 20% | 1022.5 hPa | - | - | - | - |
| 1777717812 | 25° C | 18% | 1022.5 hPa | - | - | - | - |
| 1777716611 | 26.67° C | 17% | 1022.8 hPa | - | - | - | - |
| 1777715411 | 26.11° C | 16% | 1023.1 hPa | - | - | - | - |
| 1777714211 | 26.11° C | 15% | 1023.3 hPa | - | - | - | - |
| 1777713010 | 27.22° C | 15% | 1023.5 hPa | - | - | - | - |
| 1777711810 | 26.67° C | 14% | 1023.5 hPa | - | - | - | - |
| 1777710610 | 26.11° C | 16% | 1023.5 hPa | - | - | - | - |
| 1777709465 | 25° C | 18% | 1023.3 hPa | - | - | - | - |
| 1777708264 | 23.89° C | 21% | 1023.6 hPa | - | - | - | - |
| 1777707064 | 23.89° C | 26% | 1023.5 hPa | - | - | - | - |
| 1777705864 | 23.89° C | 25% | 1023.6 hPa | - | - | - | - |
| 1777704663 | 21.67° C | 29% | 1023.3 hPa | - | - | - | - |
| 1777703463 | 16.67° C | 37% | 1023.7 hPa | - | - | - | - |
| 1777702263 | 15° C | 39% | 1023.7 hPa | - | - | - | - |
| 1777701062 | 14.44° C | 40% | 1023.8 hPa | - | - | - | - |
| 1777699862 | 12.78° C | 44% | 1023.7 hPa | - | - | - | - |
| 1777698662 | 12.78° C | 45% | 1023.3 hPa | - | - | - | - |
| 1777697461 | 11.67° C | 47% | 1023.3 hPa | - | - | - | - |
| 1777696261 | 11.67° C | 46% | 1023.6 hPa | - | - | - | - |
* Rain since midnight (hover to see other rain measurements)
** Current wind speed in m/s (hover to see current wind gust speed)